Flight Track Log - Related Links

Times and Time Zones

All times are in EDT time to prevent confusion due to time zone crossing. See the N848TC flight status page for this flight to view local times or setup timezone preferences in your user account.

Time Position Orientation Groundspeed Altitude Reporting Facility
EDT Latitude Longitude Course Direction KTS MPH feet Rate Location/Type
Sun 08:43:45 AM 34.7597 -86.4883 139° Southeast 248 285 4,700  Level Memphis Center
Sun 08:44:46 AM 34.7019 -86.4267 139° Southeast 267 307 7,500 2,557 Climbing Memphis Center
Sun 08:45:47 AM 34.6369 -86.3622 141° Southeast 291 335 9,900 1,805 Climbing Memphis Center
Sun 08:46:49 AM 34.5569 -86.3267 160° South 313 360 11,200 1,707 Climbing Memphis Center
Sun 08:47:50 AM 34.4611 -86.3219 178° South 338 389 13,400 2,244 Climbing Memphis Center
Sun 08:48:52 AM 34.3708 -86.2981 168° South 339 390 15,800 2,244 Climbing Memphis Center
Sun 08:49:53 AM 34.2758 -86.2258 148° Southeast 334 384 18,000 2,016 Climbing Memphis Center
Sun 08:50:54 AM 34.1933 -86.1658 149° Southeast 340 391 19,900 1,659 Climbing Memphis Center
Sun 08:51:56 AM 34.1111 -86.1053 149° Southeast 342 394 21,400 1,463 Climbing Memphis Center
Sun 08:52:57 AM 34.0231 -86.0417 149° Southeast 360 414 22,900 1,426 Climbing Memphis Center
Sun 08:53:58 AM 33.9331 -85.9783 150° Southeast 370 426 24,300 1,371 Climbing Memphis Center
Sun 08:55:17 AM 33.8097 -85.8864 148° Southeast 371 427 26,100 1,165 Climbing Atlanta Center
Sun 08:56:17 AM 33.7144 -85.8219 151° Southeast 371 427 27,000 450 Climbing Atlanta Center
Sun 08:57:17 AM 33.6278 -85.7628 150° Southeast 382 440 27,000  Level Atlanta Center
Sun 08:58:17 AM 33.5286 -85.6933 150° Southeast 401 461 27,000  Level Atlanta Center
Sun 08:59:17 AM 33.4333 -85.6269 150° Southeast 406 467 27,000  Level Atlanta Center
Sun 09:00:17 AM 33.3403 -85.5606 149° Southeast 401 461 27,000  Level Atlanta Center
Sun 09:01:17 AM 33.2514 -85.4919 147° Southeast 391 450 27,000  Level Atlanta Center
Sun 09:02:17 AM 33.1644 -85.4358 152° Southeast 370 426 27,000  Level Atlanta Center
Sun 09:03:17 AM 33.0772 -85.3750 150° Southeast 364 419 27,000  Level Atlanta Center
Sun 09:04:17 AM 32.9903 -85.3117 149° Southeast 364 419 27,000  Level Atlanta Center
Sun 09:05:17 AM 32.9053 -85.2511 149° Southeast 364 419 27,000  Level Atlanta Center
Sun 09:06:17 AM 32.8225 -85.1931 149° Southeast 353 406 27,000  Level Atlanta Center
Sun 09:07:17 AM 32.7394 -85.1378 151° Southeast 353 406 27,000  Level Atlanta Center
Sun 09:09:40 AM 32.5331 -84.9969 150° Southeast 349 402 27,000  Level Jacksonville Center
Sun 09:10:40 AM 32.4547 -84.9408 149° Southeast 349 402 27,000  Level Jacksonville Center
Sun 09:11:40 AM 32.3658 -84.8825 151° Southeast 349 402 27,000  Level Jacksonville Center
Sun 09:12:40 AM 32.2772 -84.8214 150° Southeast 344 396 27,000  Level Jacksonville Center
Sun 09:13:40 AM 32.1922 -84.7656 151° Southeast 344 396 27,000  Level Jacksonville Center
Sun 09:14:40 AM 32.1075 -84.7075 150° Southeast 344 396 27,000  Level Jacksonville Center
Sun 09:15:40 AM 32.0250 -84.6519 150° Southeast 344 396 27,000  Level Jacksonville Center
Sun 09:16:40 AM 31.9378 -84.6086 157° South 344 396 27,000  Level Jacksonville Center
Sun 09:17:40 AM 31.8422 -84.5750 163° South 344 396 27,000  Level Jacksonville Center
Sun 09:18:40 AM 31.7508 -84.5442 164° South 344 396 27,000  Level Jacksonville Center
Sun 09:19:40 AM 31.6550 -84.5131 165° South 344 396 27,000  Level Jacksonville Center
Sun 09:20:40 AM 31.5617 -84.4822 164° South 344 396 27,000  Level Jacksonville Center
Sun 09:21:40 AM 31.4681 -84.4489 163° South 349 402 27,000  Level Jacksonville Center
Sun 09:22:40 AM 31.3744 -84.4158 163° South 354 407 27,000  Level Jacksonville Center
Sun 09:23:40 AM 31.2789 -84.3850 165° South 354 407 27,000  Level Jacksonville Center
Sun 09:24:40 AM 31.1831 -84.3519 164° South 354 407 27,000  Level Jacksonville Center
Sun 09:25:40 AM 31.0894 -84.3189 163° South 354 407 27,000  Level Jacksonville Center
Sun 09:26:40 AM 30.9939 -84.2861 164° South 354 407 27,000  Level Jacksonville Center
Sun 09:27:40 AM 30.8981 -84.2556 165° South 354 407 27,000  Level Jacksonville Center
Sun 09:28:40 AM 30.8067 -84.2253 164° South 354 407 27,000  Level Jacksonville Center
Sun 09:29:40 AM 30.7108 -84.1925 164° South 354 407 27,000  Level Jacksonville Center
Sun 09:30:40 AM 30.6172 -84.1597 163° South 354 407 27,000  Level Jacksonville Center
Sun 09:31:40 AM 30.5236 -84.1272 163° South 354 407 27,000  Level Jacksonville Center
Sun 09:32:40 AM 30.4278 -84.0972 165° South 354 407 27,000  Level Jacksonville Center
Sun 09:33:40 AM 30.3322 -84.0669 165° South 354 407 27,000  Level Jacksonville Center
Sun 09:34:40 AM 30.2383 -84.0347 163° South 354 407 27,000  Level Jacksonville Center
Sun 09:35:40 AM 30.1447 -84.0022 163° South 354 407 27,000  Level Jacksonville Center
Sun 09:36:40 AM 30.0511 -83.9725 165° South 354 407 27,000  Level Jacksonville Center
Sun 09:37:40 AM 29.9575 -83.9425 164° South 354 407 27,000  Level Jacksonville Center
Sun 09:38:40 AM 29.8594 -83.9103 164° South 354 407 27,000  Level Jacksonville Center
Sun 09:39:40 AM 29.7722 -83.8642 155° Southeast 354 407 27,000  Level Jacksonville Center
Sun 09:40:40 AM 29.6869 -83.8106 151° Southeast 354 407 27,000  Level Jacksonville Center
Sun 09:41:40 AM 29.6017 -83.7572 151° Southeast 354 407 27,000  Level Jacksonville Center
Sun 09:42:40 AM 29.5144 -83.7017 151° Southeast 354 407 27,000  Level Jacksonville Center
Sun 09:43:40 AM 29.4314 -83.6461 150° Southeast 348 400 27,000  Level Jacksonville Center
Sun 09:44:40 AM 29.3439 -83.5931 152° Southeast 348 400 27,000  Level Jacksonville Center
Sun 09:45:40 AM 29.2567 -83.5353 150° Southeast 348 400 27,000  Level Jacksonville Center
Sun 09:46:40 AM 29.1733 -83.4822 151° Southeast 348 400 27,000  Level Jacksonville Center
Sun 09:47:40 AM 29.0881 -83.4272 151° Southeast 348 400 27,000  Level Jacksonville Center
Sun 09:48:40 AM 29.0006 -83.3722 151° Southeast 348 400 27,000  Level Jacksonville Center
Sun 09:49:40 AM 28.9150 -83.3172 151° Southeast 348 400 27,000  Level Jacksonville Center
Sun 09:50:40 AM 28.8278 -83.2600 150° Southeast 348 400 27,000  Level Jacksonville Center
Sun 09:51:40 AM 28.7381 -83.2097 154° Southeast 348 400 27,000  Level Jacksonville Center
Sun 09:52:40 AM 28.6442 -83.2000 175° South 338 389 27,000  Level Jacksonville Center
Sun 09:55:06 AM 28.4194 -83.2231 185° South 350 403 27,000  Level Miami Center
Sun 09:56:08 AM 28.3231 -83.2281 183° South 347 399 27,000  Level Miami Center
Sun 09:57:10 AM 28.2292 -83.2353 184° South 345 397 27,000  Level Miami Center
Sun 09:58:11 AM 28.1128 -83.2444 184° South 346 398 27,000  Level Miami Center
Sun 09:59:13 AM 28.0167 -83.2528 184° South 347 399 27,000  Level Miami Center
Sun 10:00:15 AM 27.9189 -83.2650 186° South 349 402 27,000  Level Miami Center
Sun 10:01:17 AM 27.8231 -83.2803 188° South 350 403 27,000  Level Miami Center
Sun 10:02:19 AM 27.7261 -83.2967 189° South 352 405 27,000  Level Miami Center
Sun 10:03:21 AM 27.6103 -83.3183 189° South 352 405 27,000  Level Miami Center
Sun 10:04:23 AM 27.5142 -83.3383 190° South 352 405 27,000 -48 Level Miami Center
Sun 10:05:25 AM 27.4211 -83.3686 196° South 352 405 26,900  Descending Miami Center
Sun 10:06:27 AM 27.3294 -83.4069 200° South 352 405 27,000 48 Climbing Miami Center
Sun 10:07:29 AM 27.2328 -83.4206 187° South 353 406 27,000  Level Miami Center
Sun 10:08:31 AM 27.1367 -83.4064 173° South 352 405 27,000  Level Miami Center
Sun 10:09:33 AM 27.0272 -83.3594 159° South 354 407 27,000 -48 Level Miami Center
Sun 10:10:35 AM 26.9417 -83.3017 149° Southeast 355 409 26,900  Descending Miami Center
Sun 10:11:37 AM 26.8678 -83.2269 138° Southeast 360 414 27,000 48 Climbing Miami Center
Sun 10:12:39 AM 26.7939 -83.1519 138° Southeast 360 414 27,000 -48 Level Miami Center
Sun 10:13:41 AM 26.7197 -83.0764 138° Southeast 360 414 26,900  Descending Miami Center
Sun 10:14:42 AM 26.6431 -83.0075 141° Southeast 358 412 27,000  Climbing Miami Center
Sun 10:15:44 AM 26.5472 -82.9283 144° Southeast 358 412 26,900 -145 Descending Miami Center
Sun 10:16:46 AM 26.4767 -82.8472 134° Southeast 365 420 26,700 -629 Descending Miami Center
Sun 10:17:48 AM 26.4342 -82.7389 114° Southeast 386 444 25,600 -1,113 Descending Miami Center
Sun 10:18:50 AM 26.4117 -82.6144 101° East 406 467 24,400 -1,161 Descending Miami Center
Sun 10:19:52 AM 26.3883 -82.4889 102° East 413 475 23,200 -1,161 Descending Miami Center
Sun 10:20:54 AM 26.3647 -82.3619 102° East 415 478 22,000 -1,258 Descending Miami Center
Sun 10:21:56 AM 26.3372 -82.2108 101° East 416 479 20,600 -1,306 Descending Miami Center
Sun 10:22:58 AM 26.3144 -82.0878 102° East 408 470 19,300 -1,306 Descending Miami Center
Sun 10:24:00 AM 26.2825 -81.9567 105° East 401 461 17,900 -1,161 Descending Miami Center
Sun 10:25:02 AM 26.1997 -81.8831 141° Southeast 401 461 16,900 -1,065 Descending Miami Center
Sun 10:26:04 AM 26.0964 -81.8564 167° South 349 402 15,700 -1,016 Descending Miami Center
Sun 10:27:06 AM 26.0517 -81.7714 120° Southeast 336 387 14,800 -871 Descending Miami Center
Sun 10:28:08 AM 26.0706 -81.6592 79° East 345 397 13,900 -871 Descending Miami Center
Sun 10:29:10 AM 26.0867 -81.5536 80° East 351 404 13,000 -919 Descending Miami Center
Sun 10:30:12 AM 26.0883 -81.4392 89° East 348 400 12,000 -726 Descending Miami Center
Sun 10:31:14 AM 26.0906 -81.3333 89° East 348 400 11,500 -532 Descending Miami Center
Sun 10:32:16 AM 26.0925 -81.2203 89° East 344 396 10,900 -789 Descending Miami Center
Sun 10:33:08 AM 26.0942 -81.1347 89° East 328 377 10,000 -968 Descending Miami Center
Sun 10:33:18 AM 26.0950 -81.1131 88° East 328 377 9,900 -612 Descending Miami Center
Sun 10:33:57 AM 26.0956 -81.0536 89° East 312 359 9,500 -581 Descending Miami Center
Sun 10:34:20 AM 26.0961 -81.0261 89° East 315 362 9,300 -1,180 Descending Miami Center
Sun 10:34:58 AM 26.0975 -80.9611 89° East 299 344 8,300 -1,258 Descending Miami Center
Sun 10:35:22 AM 26.0969 -80.9333 91° East 303 349 8,000 -1,082 Descending Miami Center
Sun 10:35:59 AM 26.0953 -80.8725 92° East 285 328 7,200 -871 Descending Miami Center
Sun 10:36:24 AM 26.0961 -80.8461 88° East 285 328 7,100 -393 Descending Miami Center
Sun 10:37:00 AM 26.0925 -80.7867 94° East 250 288 6,800 -484 Descending Miami Center
Sun 10:37:26 AM 26.0925 -80.7542 90° East 244 281 6,600 -492 Descending Miami Center
Sun 10:38:01 AM 26.0892 -80.7097 95° East 238 274 6,300 -381 Descending Miami Center
Sun 10:38:29 AM 26.0883 -80.6778 92° East 245 282 6,200 -492 Descending Miami Center
Sun 10:39:02 AM 26.0878 -80.6353 91° East 246 283 5,800 -387 Descending Miami Center
Sun 10:39:31 AM 26.0886 -80.6011 88° East 245 282 5,800 -295 Level Miami Center
Sun 10:40:03 AM 26.1033 -80.5600 68° East 242 278 5,500 -387 Descending Miami Center
Sun 10:40:33 AM 26.1114 -80.5297 73° East 246 283 5,400 -393 Descending Miami Center
Sun 10:41:04 AM 26.1183 -80.4869 80° East 236 272 5,100 -581 Descending Miami Center
Sun 10:41:35 AM 26.1222 -80.4592 81° East 233 268 4,800 -885 Descending Miami Center
Sun 10:42:05 AM 26.1289 -80.4206 79° East 197 227 4,200 -1,143 Descending Miami Center
Sun 10:42:38 AM 26.1319 -80.3981 81° East 203 234 3,600 -1,377 Descending Miami Center
Sun 10:43:06 AM 26.1308 -80.3603 92° East 194 223 2,800 -1,258 Descending Miami Center
Sun 10:43:40 AM 26.1206 -80.3300 111° Southeast 187 215 2,300 -689 Descending Miami Center
Sun 10:44:07 AM 26.1111 -80.3078 115° Southeast 172 198 2,100 -581 Descending Miami Center
Sun 10:44:42 AM 26.0986 -80.2825 119° Southeast 176 203 1,700 -590 Descending Miami Center
Sun 10:45:08 AM 26.0886 -80.2642 121° Southeast 150 173 1,500 -677 Descending Miami Center
Sun 10:45:44 AM 26.0789 -80.2444 119° Southeast 145 167 1,000 -581 Descending Miami Center
Sun 10:46:10 AM 26.0761 -80.2286 101° East 128 147 900 -381 Descending Miami Center
Sun 10:46:47 AM 26.0772 -80.2075 87° East 123 142 600 -492 Descending Miami Center
Sun 10:47:11 AM 26.0767 -80.1869 92° East 132 152 400 17,806 Descending Miami Center
Sun 10:47:49 AM 26.0769 -80.1617 89° East 126 145 19,000 29,368 Climbing Miami Center
Sun 10:49:00 AM 26.0667 -80.1500 90° East  Level FlightAware Approximate

Login

Don't have an account? Register now (free) for customized features, flight alerts, and more!